This is the latest recevied weather packets stored in our database for station/object KB1JL-13. If no packets are shown the sender has not sent any weather packets the latest 10 day(s).
| Time | Temp. | Humidity | Pressure | Rain* | Wind** | Luminosity | Snow |
|---|---|---|---|---|---|---|---|
| 1777723193 | 8.89° C | 99% | 1023 hPa | 0 mm | - | 99 W/m² | - |
| 1777721981 | 8.33° C | 98% | 1023.7 hPa | 0 mm | - | 33 W/m² | - |
| 1777721678 | 8.33° C | 98% | 1023.7 hPa | 1.27 mm | - | 22 W/m² | - |
| 1777721377 | 8.89° C | 98% | 1024.4 hPa | 3.05 mm | - | 17 W/m² | - |
| 1777721074 | 8.89° C | 98% | 1024 hPa | 4.83 mm | - | 23 W/m² | - |
| 1777720771 | 8.89° C | 98% | 1024.4 hPa | 4.83 mm | - | 11 W/m² | - |
| 1777720468 | 8.89° C | 98% | 1024 hPa | 3.05 mm | - | 12 W/m² | - |
| 1777720166 | 8.33° C | 98% | 1024.4 hPa | 0 mm | - | 6 W/m² | - |
| 1777719864 | 8.89° C | 98% | 1024.4 hPa | 0 mm | - | 6 W/m² | - |
| 1777719560 | 8.89° C | 98% | 1024 hPa | 0 mm | - | 6 W/m² | - |
| 1777719257 | 8.89° C | 98% | 1024 hPa | 0 mm | - | 15 W/m² | - |
| 1777718956 | 8.89° C | 98% | 1024 hPa | 0 mm | - | 13 W/m² | - |
| 1777718653 | 8.33° C | 98% | 1023.7 hPa | 0 mm | - | 26 W/m² | - |
| 1777718350 | 8.33° C | 98% | 1023.7 hPa | 0 mm | - | 14 W/m² | - |
| 1777718048 | 8.33° C | 98% | 1023.7 hPa | 0 mm | - | 12 W/m² | - |
| 1777717744 | 8.33° C | 98% | 1023.7 hPa | 0 mm | - | 7 W/m² | - |
| 1777717441 | 8.33° C | 98% | 1023.7 hPa | 0 mm | - | 6 W/m² | - |
| 1777717138 | 8.33° C | 97% | 1023.7 hPa | 0 mm | - | 6 W/m² | - |
| 1777716836 | 8.33° C | 97% | 1023.4 hPa | 0 mm | - | 5 W/m² | - |
| 1777716534 | 8.33° C | 97% | 1023.4 hPa | 0 mm | - | 4 W/m² | - |
| 1777716234 | 8.33° C | 97% | 1023.4 hPa | 0 mm | - | 5 W/m² | - |
| 1777715930 | 8.33° C | 97% | 1023.7 hPa | 0 mm | - | 1 W/m² | - |
| 1777715628 | 8.33° C | 97% | 1023.4 hPa | 0 mm | - | 0 W/m² | - |
| 1777715326 | 8.33° C | 97% | 1023.4 hPa | 0 mm | - | 0 W/m² | - |
| 1777715023 | 8.33° C | 97% | 1023.4 hPa | 0 mm | - | 0 W/m² | - |
* Rain latest hour (hover to see other rain measurements)
** Current wind speed in m/s (hover to see current wind gust speed)